Accueil
METAR-TAF:

METAR-TAF

Aéroports :

Aéroport international de Cambridge

Cambridge, Angleterre

latitude: 52-12N, longitude: 000-11E, altitude: 15 m

Observation

Le bulletin a été fait il y a 22 minutes, à 07:20 UTC
Vent 8 kt de sud-ouest, variant entre sud et ouest
Température 12°C
Humidité 76%
Pression 1010 hPa
Visibilité 10 km ou plus
Quelques nuages à une hauteur de 3800 ft

METAR: EGSC 270720Z 23008KT 190V260 9999 FEW038 12/08 Q1010

Heure: 08:42 (07:42 UTC)

Prévision

Le bulletin a été fait il y a 10 minutes, à 07:32 UTC
Prévision valable du 27 à 07 UTC au 27 à 15 UTC
Vent 9 kt de ouest/sud-ouest
Visibilité 10 km ou plus
Quelques nuages à une hauteur de 3000 ft
Temporairement
du 27 à 09 UTC au 27 à 15 UTC
Vent 15 kt de ouest avec des rafales jusqu'à 25 kt
Visibilité: 7000 m
averses de pluie

TAF: EGSC 270732Z 2707/2715 24009KT 9999 FEW030 TEMPO 2709/2715 26015G25KT 7000 SHRA

Observations et prévisions météorologiques de plus de 4000 aéroports (messages METAR et TAF).

Les stations disponibles sont représentées par des disques jaunes et rouges sur la carte.

Passer la souris dessus pour voir le nom de la station.

Cliquer dessus pour voir les observations et prévisions météorologiques.

Pour changer de carte: cliquez sur les boutons verts avec une croix noire pour zoomer, sur le bouton vert avec un tiret pour effectuer un zoom arrière, ou sur les flèches vertes pour les cartes adjacentes.


METAR-TAF: